Time;durP1;ratioP1;P1;durP2;ratioP2;P2;SDS_P1;SDS_P2;PMS_P1;PMS_P2;Temp;Humidity;BMP_temperature;BMP_pressure;BME280_temperature;BME280_humidity;BME280_pressure;Samples;Min_cycle;Max_cycle;Signal;HPM_P1;HPM_P2
2023/09/01 00:01:31;;;;;;;6.45;3.50;;;12.50;92.30;;;;;;5014011;28;20030;-45
2023/09/01 00:03:59;;;;;;;7.60;3.60;;;12.50;92.20;;;;;;5031845;28;20676;-47
2023/09/01 00:06:27;;;;;;;7.43;4.20;;;12.40;92.20;;;;;;5014207;28;20124;-45
2023/09/01 00:08:57;;;;;;;7.47;3.60;;;12.40;92.00;;;;;;5031646;28;20021;-45
2023/09/01 00:11:41;;;;;;;7.15;3.53;;;12.40;92.10;;;;;;5030273;28;20090;-49
2023/09/01 00:14:08;;;;;;;9.27;4.00;;;12.40;92.10;;;;;;5013969;28;20029;-44
2023/09/01 00:16:35;;;;;;;7.93;4.35;;;12.40;92.30;;;;;;5013978;28;20060;-46
2023/09/01 00:19:00;;;;;;;11.20;4.63;;;12.40;92.30;;;;;;5031212;28;20025;-48
2023/09/01 00:21:26;;;;;;;6.32;3.53;;;12.40;92.30;;;;;;5013826;28;20033;-46
2023/09/01 00:23:53;;;;;;;6.85;3.50;;;12.40;92.50;;;;;;5031369;28;20055;-44
2023/09/01 00:26:20;;;;;;;7.63;4.05;;;12.30;92.40;;;;;;5031309;28;20026;-44
2023/09/01 00:28:47;;;;;;;7.50;4.25;;;12.40;92.40;;;;;;5031474;28;20021;-47
2023/09/01 00:31:17;;;;;;;10.02;3.85;;;12.30;92.30;;;;;;5031251;28;20030;-44
2023/09/01 00:33:43;;;;;;;10.30;5.65;;;12.30;92.40;;;;;;5030981;28;20052;-44
2023/09/01 00:36:11;;;;;;;7.32;3.78;;;12.40;92.40;;;;;;5031362;28;20565;-48
2023/09/01 00:38:38;;;;;;;6.57;3.75;;;12.30;92.30;;;;;;5030916;28;20458;-45
2023/09/01 00:41:07;;;;;;;11.10;3.25;;;12.30;92.30;;;;;;5009943;28;20490;-47
2023/09/01 00:43:35;;;;;;;7.00;4.55;;;12.30;92.30;;;;;;5011046;28;20034;-49
2023/09/01 00:46:03;;;;;;;5.93;3.83;;;12.30;92.20;;;;;;5029838;28;20029;-47
2023/09/01 00:48:29;;;;;;;9.32;4.10;;;12.30;92.20;;;;;;5048370;28;20021;-47
2023/09/01 00:50:57;;;;;;;5.88;4.00;;;12.20;92.20;;;;;;5033057;28;20032;-47
2023/09/01 00:53:26;;;;;;;8.07;3.38;;;12.20;92.20;;;;;;5049710;28;20044;-47
2023/09/01 00:55:58;;;;;;;6.95;3.33;;;12.20;92.30;;;;;;5036541;28;20029;-47
2023/09/01 00:58:28;;;;;;;5.80;3.33;;;12.20;92.30;;;;;;5030797;28;20041;-45
2023/09/01 01:00:59;;;;;;;5.55;3.33;;;12.20;92.20;;;;;;5030989;28;20029;-46
2023/09/01 01:03:28;;;;;;;6.60;3.78;;;12.20;92.10;;;;;;5013401;28;20088;-45
2023/09/01 01:06:27;;;;;;;8.82;4.00;;;12.10;92.00;;;;;;5030657;28;20018;-49
2023/09/01 01:09:22;;;;;;;7.10;3.92;;;12.00;92.20;;;;;;5030723;28;20048;-45
2023/09/01 01:12:13;;;;;;;5.90;4.18;;;12.00;92.10;;;;;;5030711;28;20053;-48
2023/09/01 01:14:56;;;;;;;9.38;3.38;;;12.00;92.10;;;;;;5030413;28;20084;-46
2023/09/01 01:17:23;;;;;;;5.53;3.75;;;12.00;92.10;;;;;;5030462;28;20026;-44
2023/09/01 01:20:15;;;;;;;6.97;3.60;;;11.90;92.10;;;;;;5013032;28;20033;-46
2023/09/01 01:23:00;;;;;;;5.43;2.95;;;11.90;92.20;;;;;;5030367;28;20447;-45
2023/09/01 01:25:27;;;;;;;14.18;4.53;;;11.90;92.20;;;;;;5012847;28;20046;-45
2023/09/01 01:27:57;;;;;;;5.45;3.22;;;11.90;92.20;;;;;;4996961;28;20030;-48
2023/09/01 01:30:24;;;;;;;6.15;3.38;;;11.90;92.20;;;;;;5013596;28;20095;-44
2023/09/01 01:32:51;;;;;;;4.32;3.10;;;11.90;92.20;;;;;;5030515;28;20026;-45
2023/09/01 01:35:50;;;;;;;22.08;4.00;;;11.90;92.20;;;;;;5030562;28;20045;-45
2023/09/01 01:38:27;;;;;;;;;;;11.90;92.30;;;;;;5013242;28;20037;-48
2023/09/01 01:40:59;;;;;;;9.68;3.35;;;11.90;92.20;;;;;;5029095;28;20378;-47
2023/09/01 01:43:29;;;;;;;9.75;3.20;;;11.90;92.20;;;;;;5012976;28;20041;-47
2023/09/01 01:45:57;;;;;;;;;;;11.80;92.00;;;;;;5030822;28;20087;-49
2023/09/01 01:48:24;;;;;;;5.03;3.25;;;11.80;91.90;;;;;;5030484;28;19913;-46
2023/09/01 01:50:54;;;;;;;6.97;3.10;;;11.80;91.90;;;;;;5012467;28;20033;-46
2023/09/01 01:53:22;;;;;;;4.82;2.63;;;11.80;92.00;;;;;;5013682;28;20025;-46
2023/09/01 01:55:50;;;;;;;6.07;2.88;;;11.70;91.90;;;;;;5030448;28;20029;-46
2023/09/01 01:58:19;;;;;;;6.10;3.95;;;11.70;92.00;;;;;;5015155;28;20025;-49
2023/09/01 02:00:49;;;;;;;5.53;3.00;;;11.70;92.00;;;;;;5016575;28;20041;-45
2023/09/01 02:03:17;;;;;;;6.00;2.83;;;11.70;92.10;;;;;;5033829;28;20674;-47
2023/09/01 02:05:43;;;;;;;8.10;2.50;;;11.70;92.00;;;;;;5034247;28;20132;-47
2023/09/01 02:08:10;;;;;;;6.80;3.08;;;11.70;92.00;;;;;;5033801;28;20120;-47
2023/09/01 02:10:37;;;;;;;11.57;3.42;;;11.70;91.90;;;;;;5033662;28;20029;-45
2023/09/01 02:13:05;;;;;;;5.40;2.67;;;11.70;91.90;;;;;;5033763;28;20029;-46
2023/09/01 02:15:32;;;;;;;5.65;3.17;;;11.70;91.90;;;;;;5016268;28;20128;-50
2023/09/01 02:18:03;;;;;;;4.57;3.28;;;11.70;91.80;;;;;;5033628;28;20450;-45
2023/09/01 02:20:37;;;;;;;4.90;3.72;;;11.70;91.90;;;;;;5033985;28;20033;-48
2023/09/01 02:23:04;;;;;;;6.32;3.63;;;11.60;91.70;;;;;;5033423;28;20117;-49
2023/09/01 02:25:36;;;;;;;6.75;3.53;;;11.60;91.70;;;;;;5033611;28;20343;-48
2023/09/01 02:28:05;;;;;;;6.90;3.42;;;11.60;91.70;;;;;;5033541;28;20018;-48
2023/09/01 02:30:34;;;;;;;6.30;3.50;;;11.50;91.70;;;;;;5033277;28;20026;-47
2023/09/01 02:33:01;;;;;;;6.65;3.28;;;11.60;91.70;;;;;;5016224;28;20061;-47
2023/09/01 02:35:31;;;;;;;6.82;3.22;;;11.60;91.60;;;;;;5033681;28;20037;-45
2023/09/01 02:37:56;;;;;;;5.82;2.75;;;11.50;91.60;;;;;;5033396;28;20033;-46
2023/09/01 02:40:24;;;;;;;10.90;4.32;;;11.50;91.60;;;;;;5033081;28;20103;-45
2023/09/01 02:42:52;;;;;;;4.68;3.55;;;11.50;91.50;;;;;;5033087;28;20600;-48
2023/09/01 02:45:21;;;;;;;6.50;3.47;;;11.40;91.40;;;;;;5016303;28;20112;-49
2023/09/01 02:47:48;;;;;;;8.00;3.20;;;11.40;91.50;;;;;;4999390;28;20037;-46
2023/09/01 02:50:15;;;;;;;5.18;3.00;;;11.40;91.60;;;;;;5033036;28;20099;-46
2023/09/01 02:52:43;;;;;;;4.38;2.80;;;11.40;91.60;;;;;;5046321;28;20681;-48
2023/09/01 02:55:09;;;;;;;5.50;2.75;;;11.40;91.70;;;;;;5052908;28;20029;-46
2023/09/01 02:57:36;;;;;;;4.65;3.00;;;11.40;91.70;;;;;;5014321;28;20055;-45
2023/09/01 03:00:23;;;;;;;4.72;2.92;;;11.40;91.70;;;;;;5033137;28;20454;-45
2023/09/01 03:02:53;;;;;;;4.75;2.67;;;11.40;91.60;;;;;;5018175;28;20041;-48
2023/09/01 03:05:25;;;;;;;6.82;3.25;;;11.40;91.60;;;;;;5032869;28;20155;-50
2023/09/01 03:07:52;;;;;;;6.07;3.25;;;11.40;91.70;;;;;;5033071;28;20057;-50
2023/09/01 03:10:17;;;;;;;7.15;3.10;;;11.40;91.70;;;;;;5048972;28;20358;-46
2023/09/01 03:12:44;;;;;;;11.40;3.17;;;11.40;91.70;;;;;;5034934;28;20117;-45
2023/09/01 03:15:13;;;;;;;5.65;2.95;;;11.40;91.70;;;;;;5030280;28;20045;-52
2023/09/01 03:17:44;;;;;;;5.20;2.63;;;11.40;91.70;;;;;;5045056;28;20039;-46
2023/09/01 03:20:12;;;;;;;6.22;2.85;;;11.40;91.70;;;;;;5042937;28;20040;-47
2023/09/01 03:22:38;;;;;;;5.00;2.53;;;11.40;91.60;;;;;;5026798;28;20029;-47
2023/09/01 03:25:13;;;;;;;6.82;3.33;;;11.40;91.50;;;;;;5031772;28;20068;-47
2023/09/01 03:27:43;;;;;;;3.95;2.58;;;11.40;91.40;;;;;;5015142;28;20347;-47
2023/09/01 03:30:11;;;;;;;7.97;3.17;;;11.40;91.50;;;;;;5032487;28;20056;-47
2023/09/01 03:32:40;;;;;;;6.47;2.70;;;11.40;91.50;;;;;;5014884;28;20104;-45
2023/09/01 03:35:11;;;;;;;5.22;2.70;;;11.40;91.50;;;;;;5014849;28;20033;-51
2023/09/01 03:37:38;;;;;;;4.13;2.65;;;11.40;91.50;;;;;;5032153;28;20029;-46
2023/09/01 03:40:09;;;;;;;9.95;3.13;;;11.40;91.50;;;;;;5033549;28;20045;-50
2023/09/01 03:42:39;;;;;;;6.15;2.80;;;11.40;91.40;;;;;;5051786;28;20365;-47
2023/09/01 03:45:08;;;;;;;5.13;2.97;;;11.40;91.50;;;;;;5015529;28;20033;-46
2023/09/01 03:47:35;;;;;;;4.78;2.70;;;11.40;91.50;;;;;;5015489;28;20034;-48
2023/09/01 03:50:02;;;;;;;6.25;3.25;;;11.40;91.40;;;;;;5031897;28;20029;-46
2023/09/01 03:52:29;;;;;;;5.60;2.60;;;11.30;91.50;;;;;;5015048;28;20354;-46
2023/09/01 03:54:56;;;;;;;5.82;2.63;;;11.30;91.50;;;;;;5031976;28;20079;-46
2023/09/01 03:57:28;;;;;;;5.80;2.70;;;11.30;91.50;;;;;;5032024;28;20087;-46
2023/09/01 03:59:56;;;;;;;4.30;2.65;;;11.30;91.50;;;;;;5032116;28;20033;-49
2023/09/01 04:02:25;;;;;;;6.65;2.75;;;11.30;91.60;;;;;;4997885;28;20626;-52
2023/09/01 04:04:52;;;;;;;5.40;2.90;;;11.30;91.60;;;;;;5031706;28;20025;-46
2023/09/01 04:07:17;;;;;;;6.63;2.78;;;11.30;91.60;;;;;;5031541;28;20131;-49
2023/09/01 04:09:44;;;;;;;4.20;2.55;;;11.20;91.50;;;;;;5031789;28;20836;-49
2023/09/01 04:12:12;;;;;;;5.28;2.92;;;11.20;91.50;;;;;;5031757;28;20035;-51
2023/09/01 04:14:39;;;;;;;5.57;2.45;;;11.20;91.60;;;;;;5031439;28;20036;-50
2023/09/01 04:17:04;;;;;;;4.88;2.83;;;11.20;91.60;;;;;;5031557;28;20104;-49
2023/09/01 04:19:30;;;;;;;8.25;3.08;;;11.10;91.50;;;;;;5031474;28;20173;-46
2023/09/01 04:21:57;;;;;;;6.20;2.75;;;11.10;91.50;;;;;;5031223;28;20446;-47
2023/09/01 04:24:24;;;;;;;5.22;2.90;;;11.10;91.50;;;;;;5031375;28;20072;-47
2023/09/01 04:26:51;;;;;;;7.47;2.85;;;11.10;91.70;;;;;;5031256;28;20018;-47
2023/09/01 04:29:18;;;;;;;6.80;3.05;;;11.10;91.70;;;;;;5013972;28;20091;-46
2023/09/01 04:31:44;;;;;;;7.05;3.10;;;11.10;91.60;;;;;;5031330;28;20030;-48
2023/09/01 04:34:13;;;;;;;5.13;2.88;;;11.10;91.70;;;;;;5031122;28;20742;-48
2023/09/01 04:36:39;;;;;;;9.15;3.22;;;11.10;91.80;;;;;;5031261;28;20183;-46
2023/09/01 04:39:09;;;;;;;8.40;3.25;;;11.10;91.80;;;;;;5043655;28;20040;-46
2023/09/01 04:41:37;;;;;;;3.88;2.63;;;11.10;91.80;;;;;;5049615;28;20052;-49
2023/09/01 04:44:04;;;;;;;8.20;3.28;;;11.10;91.80;;;;;;5033133;28;20641;-51
2023/09/01 04:46:31;;;;;;;4.88;3.05;;;11.10;91.70;;;;;;5042403;28;20124;-49
2023/09/01 04:49:00;;;;;;;5.43;3.22;;;11.10;91.70;;;;;;5031265;28;20033;-51
2023/09/01 04:51:27;;;;;;;6.50;2.78;;;11.10;91.70;;;;;;5030270;28;20037;-49
2023/09/01 04:53:52;;;;;;;4.45;2.60;;;11.10;91.60;;;;;;5046293;28;20048;-50
2023/09/01 04:56:18;;;;;;;10.52;3.50;;;11.10;91.70;;;;;;5047145;28;20587;-46
2023/09/01 04:58:46;;;;;;;6.07;3.15;;;11.00;91.70;;;;;;5050930;28;20024;-48
2023/09/01 05:01:16;;;;;;;5.20;2.90;;;11.00;91.80;;;;;;5049334;28;20496;-47
2023/09/01 05:03:46;;;;;;;7.63;3.55;;;11.00;91.80;;;;;;5043564;28;20124;-46
2023/09/01 05:06:14;;;;;;;7.40;3.88;;;11.10;91.90;;;;;;5050096;28;20037;-49
2023/09/01 05:08:41;;;;;;;9.02;3.40;;;11.10;91.90;;;;;;5032442;28;20029;-50
2023/09/01 05:11:08;;;;;;;7.38;3.30;;;11.10;92.00;;;;;;5047959;28;20033;-47
2023/09/01 05:13:36;;;;;;;6.38;3.30;;;11.10;92.10;;;;;;5050176;28;20112;-51
2023/09/01 05:16:07;;;;;;;6.70;3.60;;;11.20;92.10;;;;;;5048923;28;20024;-53
2023/09/01 05:18:33;;;;;;;6.03;3.53;;;11.20;92.10;;;;;;5047347;28;20033;-50
2023/09/01 05:20:59;;;;;;;7.13;3.20;;;11.30;92.10;;;;;;5031863;28;20343;-48
2023/09/01 05:23:31;;;;;;;4.90;3.47;;;11.30;92.10;;;;;;5049507;28;20037;-47
2023/09/01 05:26:02;;;;;;;6.95;3.25;;;11.40;92.20;;;;;;5048797;28;20522;-49
2023/09/01 05:28:30;;;;;;;5.65;3.40;;;11.40;92.10;;;;;;5049644;28;20618;-50
2023/09/01 05:30:57;;;;;;;5.90;3.13;;;11.40;92.20;;;;;;5026675;28;20033;-48
2023/09/01 05:33:26;;;;;;;6.43;3.25;;;11.50;92.20;;;;;;5034414;28;20053;-46
2023/09/01 05:35:53;;;;;;;5.28;3.33;;;11.50;92.20;;;;;;5053292;28;20029;-46
2023/09/01 05:38:20;;;;;;;6.75;3.17;;;11.60;92.20;;;;;;5019139;28;20094;-49
2023/09/01 05:40:58;;;;;;;6.68;3.67;;;11.60;92.20;;;;;;5040667;28;20041;-52
2023/09/01 05:43:25;;;;;;;4.53;3.17;;;11.70;92.30;;;;;;5033401;28;20033;-46
2023/09/01 05:45:52;;;;;;;5.30;2.95;;;11.80;92.20;;;;;;5016584;28;20101;-46
2023/09/01 05:48:31;;;;;;;5.30;3.08;;;11.90;92.30;;;;;;5032256;28;20030;-50
2023/09/01 05:50:58;;;;;;;6.70;3.33;;;11.90;92.30;;;;;;5016016;28;20566;-51
2023/09/01 05:53:26;;;;;;;7.13;3.60;;;12.10;92.40;;;;;;5033481;28;20069;-49
2023/09/01 05:55:57;;;;;;;4.65;3.10;;;12.20;92.40;;;;;;4995482;28;20119;-48
2023/09/01 05:58:23;;;;;;;5.85;3.85;;;12.20;92.40;;;;;;5033079;28;20048;-49
2023/09/01 06:00:54;;;;;;;4.88;3.03;;;12.30;92.30;;;;;;5013897;28;20057;-49
2023/09/01 06:03:19;;;;;;;4.85;2.70;;;12.40;92.30;;;;;;5031603;28;20113;-48
2023/09/01 06:05:47;;;;;;;4.95;2.85;;;12.40;92.50;;;;;;5032604;28;20132;-47
2023/09/01 06:08:14;;;;;;;7.20;3.03;;;12.50;92.40;;;;;;4995558;28;20053;-46
2023/09/01 06:10:41;;;;;;;4.10;2.45;;;12.50;92.40;;;;;;5029844;28;20028;-48
2023/09/01 06:13:06;;;;;;;5.40;3.03;;;12.50;92.40;;;;;;5031718;28;20029;-47
2023/09/01 06:15:32;;;;;;;5.40;3.22;;;12.60;92.20;;;;;;5033681;28;20061;-48
2023/09/01 06:17:59;;;;;;;4.93;3.58;;;12.60;92.20;;;;;;5033779;28;20774;-47
2023/09/01 06:20:28;;;;;;;5.75;3.05;;;12.60;92.10;;;;;;5015402;28;20045;-47
2023/09/01 06:22:58;;;;;;;6.00;2.53;;;12.70;92.10;;;;;;5016047;28;20092;-51
2023/09/01 06:25:27;;;;;;;5.63;2.90;;;12.70;92.00;;;;;;5033473;28;20092;-50
2023/09/01 06:27:54;;;;;;;4.93;2.90;;;12.70;92.00;;;;;;5027046;28;20109;-46
2023/09/01 06:30:23;;;;;;;4.60;2.60;;;12.80;91.90;;;;;;5023445;28;20029;-48
2023/09/01 06:32:51;;;;;;;7.75;3.22;;;12.90;92.10;;;;;;5035775;28;20379;-48
2023/09/01 06:35:24;;;;;;;7.65;2.97;;;12.90;92.20;;;;;;5030866;28;20155;-45
2023/09/01 06:37:50;;;;;;;3.95;2.53;;;12.90;92.00;;;;;;5031032;28;20482;-49
2023/09/01 06:40:19;;;;;;;4.85;2.45;;;13.00;92.00;;;;;;5036347;28;20056;-47
2023/09/01 06:42:44;;;;;;;7.05;2.85;;;13.10;92.10;;;;;;5033159;28;20084;-49
2023/09/01 06:45:10;;;;;;;7.57;3.60;;;13.10;92.10;;;;;;5050904;28;20117;-45
2023/09/01 06:47:38;;;;;;;5.97;2.78;;;13.20;91.90;;;;;;5035296;28;20033;-47
2023/09/01 06:50:05;;;;;;;4.97;2.30;;;13.20;91.80;;;;;;5048763;28;20025;-49
2023/09/01 06:52:34;;;;;;;4.78;2.50;;;13.30;91.80;;;;;;5052982;28;20029;-45
2023/09/01 06:55:01;;;;;;;4.27;2.50;;;13.30;91.80;;;;;;5045119;28;20124;-48
2023/09/01 06:57:27;;;;;;;5.03;2.53;;;13.40;91.70;;;;;;5056234;28;20429;-49
2023/09/01 06:59:54;;;;;;;4.68;2.40;;;13.40;91.60;;;;;;5060264;28;20024;-47
2023/09/01 07:02:21;;;;;;;4.85;2.95;;;13.40;91.50;;;;;;5062485;28;20025;-48
2023/09/01 07:04:49;;;;;;;9.57;3.25;;;13.40;91.40;;;;;;5062853;28;20036;-48
2023/09/01 07:07:17;;;;;;;7.07;3.00;;;13.50;91.40;;;;;;5032176;28;20041;-48
2023/09/01 07:09:42;;;;;;;5.55;2.70;;;13.50;91.20;;;;;;5034360;28;20510;-48
2023/09/01 07:12:08;;;;;;;4.80;2.85;;;13.60;91.20;;;;;;5052042;28;20039;-49
2023/09/01 07:14:36;;;;;;;4.72;2.75;;;13.60;91.10;;;;;;5051640;28;20324;-50
2023/09/01 07:17:02;;;;;;;3.70;2.60;;;13.60;91.20;;;;;;5030717;28;20033;-46
2023/09/01 07:19:32;;;;;;;5.95;2.47;;;13.70;91.20;;;;;;5050167;28;20029;-50
2023/09/01 07:21:59;;;;;;;5.25;2.40;;;13.80;91.10;;;;;;5034514;28;20557;-47
2023/09/01 07:24:26;;;;;;;7.43;2.55;;;13.80;91.10;;;;;;5041707;28;20624;-46
2023/09/01 07:26:52;;;;;;;7.45;3.38;;;13.90;91.10;;;;;;5043302;28;20531;-46
2023/09/01 07:29:17;;;;;;;5.65;2.40;;;13.90;90.90;;;;;;5044379;28;20056;-48
2023/09/01 07:31:43;;;;;;;5.78;2.78;;;14.00;90.80;;;;;;5027798;28;20021;-48
2023/09/01 07:34:09;;;;;;;5.05;3.05;;;14.20;90.70;;;;;;5046472;28;20021;-45
2023/09/01 07:36:36;;;;;;;9.02;2.80;;;14.40;90.50;;;;;;5029751;28;20025;-47
2023/09/01 07:39:03;;;;;;;6.50;2.60;;;14.50;90.40;;;;;;5028131;28;20039;-46
2023/09/01 07:41:30;;;;;;;6.93;2.38;;;14.70;89.80;;;;;;5039883;28;20049;-48
2023/09/01 07:43:57;;;;;;;5.43;2.83;;;14.90;89.80;;;;;;5047108;28;20468;-49
2023/09/01 07:46:27;;;;;;;8.15;2.20;;;15.20;89.00;;;;;;5025287;28;20062;-46
2023/09/01 07:48:53;;;;;;;6.07;2.58;;;15.50;88.40;;;;;;5023772;28;20106;-46
2023/09/01 07:51:23;;;;;;;5.78;1.98;;;15.80;87.40;;;;;;5018052;28;20091;-48
2023/09/01 07:53:48;;;;;;;;;;;16.00;86.00;;;;;;5047301;28;20083;-48
2023/09/01 07:56:14;;;;;;;4.43;1.80;;;16.30;85.70;;;;;;5029084;28;20353;-50
2023/09/01 07:58:41;;;;;;;24.30;4.10;;;16.60;84.30;;;;;;5048110;28;20025;-51
2023/09/01 08:01:06;;;;;;;6.18;1.75;;;16.80;82.50;;;;;;5025140;28;20033;-49
2023/09/01 08:03:36;;;;;;;4.70;1.52;;;17.10;82.70;;;;;;5035147;28;20048;-48
2023/09/01 08:06:02;;;;;;;;;;;17.30;81.50;;;;;;5027388;28;20026;-52
2023/09/01 08:08:31;;;;;;;3.88;1.13;;;17.60;81.90;;;;;;5022221;28;19909;-53
2023/09/01 08:10:58;;;;;;;8.05;1.85;;;17.90;82.00;;;;;;5039806;28;20108;-52
2023/09/01 08:13:27;;;;;;;5.25;1.25;;;18.00;77.80;;;;;;5038708;28;20057;-54
2023/09/01 08:15:54;;;;;;;1.95;1.00;;;17.90;77.80;;;;;;5047714;28;20140;-52
2023/09/01 08:18:24;;;;;;;3.58;1.35;;;18.00;77.40;;;;;;5037750;28;20036;-55
2023/09/01 08:20:50;;;;;;;4.25;1.60;;;18.10;77.30;;;;;;5026480;28;20060;-55
2023/09/01 08:23:21;;;;;;;3.33;1.10;;;18.40;76.30;;;;;;5042033;28;20068;-54
2023/09/01 08:25:47;;;;;;;2.85;1.10;;;18.80;74.90;;;;;;5049044;28;20025;-54
2023/09/01 08:28:15;;;;;;;4.40;1.20;;;18.90;75.10;;;;;;5019037;28;20603;-54
2023/09/01 08:30:42;;;;;;;3.13;1.25;;;19.00;73.30;;;;;;5044402;28;20034;-56
2023/09/01 08:33:10;;;;;;;3.90;1.67;;;19.10;74.20;;;;;;5027660;28;20069;-54
2023/09/01 08:35:39;;;;;;;4.85;1.40;;;19.40;74.20;;;;;;5027280;28;20032;-52
2023/09/01 08:38:10;;;;;;;6.53;1.50;;;19.50;73.40;;;;;;5043653;28;20026;-53
2023/09/01 08:40:38;;;;;;;3.35;1.27;;;19.50;71.50;;;;;;5023003;28;20045;-54
2023/09/01 08:43:08;;;;;;;7.18;1.13;;;19.50;71.40;;;;;;5046994;28;20044;-52
2023/09/01 08:45:38;;;;;;;1.92;0.75;;;19.60;72.50;;;;;;5026335;28;20044;-52
2023/09/01 08:48:06;;;;;;;2.92;1.15;;;19.70;71.10;;;;;;5039504;28;20028;-54
2023/09/01 08:50:34;;;;;;;16.98;1.40;;;19.90;72.50;;;;;;5049215;28;20492;-49
2023/09/01 08:53:03;;;;;;;3.00;1.00;;;19.90;69.60;;;;;;5038802;28;20438;-52
2023/09/01 08:55:30;;;;;;;3.95;1.10;;;20.10;69.10;;;;;;5041455;28;20548;-53
2023/09/01 08:57:57;;;;;;;5.13;1.33;;;20.20;71.60;;;;;;5017765;28;20041;-50
2023/09/01 09:00:23;;;;;;;2.72;1.17;;;20.10;69.90;;;;;;5044181;28;20106;-54
2023/09/01 09:02:51;;;;;;;2.90;1.17;;;20.50;74.20;;;;;;5043002;28;20087;-53
2023/09/01 09:05:22;;;;;;;2.10;1.13;;;20.40;69.30;;;;;;5043401;28;20155;-52
2023/09/01 09:08:17;;;;;;;2.88;1.13;;;20.10;69.90;;;;;;5041162;28;20028;-55
2023/09/01 09:10:48;;;;;;;4.25;1.30;;;20.20;70.60;;;;;;5019793;28;20441;-53
2023/09/01 09:13:32;;;;;;;3.78;1.00;;;20.30;71.40;;;;;;5027924;28;20406;-52
2023/09/01 09:16:17;;;;;;;5.55;1.63;;;20.40;69.80;;;;;;5029243;28;20040;-50
2023/09/01 09:18:48;;;;;;;3.45;1.00;;;20.50;70.40;;;;;;5036286;28;20045;-55
2023/09/01 09:21:32;;;;;;;5.93;1.38;;;20.70;71.50;;;;;;5024107;28;20091;-50
2023/09/01 09:24:00;;;;;;;3.50;1.00;;;20.90;70.20;;;;;;5037063;28;20036;-52
2023/09/01 09:26:47;;;;;;;3.25;1.27;;;20.80;68.40;;;;;;5003104;28;20478;-50
2023/09/01 09:29:15;;;;;;;3.22;1.25;;;20.90;70.30;;;;;;5046479;28;20534;-52
2023/09/01 09:31:44;;;;;;;4.68;1.00;;;20.90;69.60;;;;;;5028806;28;20165;-55
2023/09/01 09:34:37;;;;;;;3.65;1.15;;;20.90;70.90;;;;;;5047905;28;20571;-53
2023/09/01 09:37:17;;;;;;;3.33;1.00;;;20.70;69.80;;;;;;5041651;28;20025;-53
2023/09/01 09:39:45;;;;;;;2.65;1.02;;;20.60;70.10;;;;;;5023651;28;20029;-54
2023/09/01 09:42:12;;;;;;;2.85;1.20;;;20.80;70.60;;;;;;5045849;28;20049;-54
2023/09/01 09:44:39;;;;;;;2.67;0.90;;;20.90;67.90;;;;;;5034664;28;20040;-53
2023/09/01 09:47:10;;;;;;;2.88;0.77;;;20.90;69.40;;;;;;5044883;28;20121;-51
2023/09/01 09:49:38;;;;;;;1.75;1.20;;;21.10;69.80;;;;;;5045325;28;20091;-49
2023/09/01 09:52:09;;;;;;;1.77;0.77;;;21.40;69.10;;;;;;5046277;28;20088;-55
2023/09/01 09:54:47;;;;;;;3.78;0.82;;;21.60;68.60;;;;;;5041871;28;20033;-54
2023/09/01 09:57:15;;;;;;;2.22;0.90;;;21.70;67.90;;;;;;5038447;28;20033;-53
2023/09/01 09:59:53;;;;;;;1.85;0.93;;;21.80;65.70;;;;;;5047092;28;20029;-54
2023/09/01 10:02:42;;;;;;;4.72;1.40;;;21.90;66.20;;;;;;5029470;28;20558;-55
2023/09/01 10:05:11;;;;;;;3.83;1.20;;;21.70;66.60;;;;;;5025870;28;20047;-53
2023/09/01 10:07:37;;;;;;;2.57;1.10;;;22.00;68.10;;;;;;5048122;28;20047;-51
2023/09/01 10:10:07;;;;;;;5.65;1.17;;;22.10;66.10;;;;;;5027574;28;20617;-54
2023/09/01 10:12:35;;;;;;;2.20;0.90;;;21.70;64.00;;;;;;5028899;28;20473;-50
2023/09/01 10:15:05;;;;;;;2.13;1.15;;;21.70;66.20;;;;;;5044436;28;20354;-50
2023/09/01 10:17:35;;;;;;;4.30;0.90;;;21.80;67.00;;;;;;5041101;28;20111;-54
2023/09/01 10:20:07;;;;;;;;;;;21.60;63.90;;;;;;5008284;28;20143;-52
2023/09/01 10:22:49;;;;;;;4.70;1.08;;;21.50;64.60;;;;;;5043720;28;20277;-50
2023/09/01 10:25:18;;;;;;;3.65;1.52;;;21.40;66.20;;;;;;5058090;28;20056;-51
2023/09/01 10:28:04;;;;;;;3.20;1.00;;;21.40;63.60;;;;;;5023096;28;20038;-50
2023/09/01 10:30:43;;;;;;;4.30;1.10;;;21.30;64.00;;;;;;5049245;28;20033;-50
2023/09/01 10:33:24;;;;;;;3.85;0.85;;;21.60;67.40;;;;;;5031430;28;20033;-53
2023/09/01 10:35:55;;;;;;;2.55;1.00;;;21.40;64.40;;;;;;5027337;28;20151;-54
2023/09/01 10:38:22;;;;;;;2.20;0.70;;;21.40;66.00;;;;;;5052504;28;20068;-51
2023/09/01 10:40:55;;;;;;;2.33;0.77;;;21.10;62.10;;;;;;5052514;28;20077;-56
2023/09/01 10:43:44;;;;;;;1.88;0.70;;;21.00;63.00;;;;;;5057308;28;20045;-51
2023/09/01 10:46:22;;;;;;;4.18;0.90;;;21.10;64.80;;;;;;5054241;28;20029;-50
2023/09/01 10:48:57;;;;;;;2.95;0.95;;;20.90;65.60;;;;;;5039290;28;20147;-55
2023/09/01 10:51:46;;;;;;;9.23;1.15;;;20.90;66.90;;;;;;5050485;28;20028;-57
2023/09/01 10:54:14;;;;;;;3.35;0.98;;;21.00;66.70;;;;;;5051029;28;20045;-53
2023/09/01 10:56:59;;;;;;;4.30;1.52;;;21.00;63.60;;;;;;5054390;28;20458;-52
2023/09/01 10:59:37;;;;;;;3.33;1.20;;;21.00;64.30;;;;;;5019224;28;20132;-51
2023/09/01 11:02:27;;;;;;;2.17;0.88;;;20.90;64.10;;;;;;5034921;28;20123;-51
2023/09/01 11:04:57;;;;;;;1.77;0.88;;;21.00;67.10;;;;;;5041528;28;20040;-49
2023/09/01 11:07:24;;;;;;;2.30;0.93;;;21.20;67.00;;;;;;5049230;28;20430;-51
2023/09/01 11:09:57;;;;;;;1.38;0.80;;;21.40;64.10;;;;;;5044964;28;20501;-55
2023/09/01 11:12:32;;;;;;;3.75;1.17;;;21.20;60.80;;;;;;5055434;28;20032;-55
2023/09/01 11:15:06;;;;;;;2.00;0.90;;;21.30;64.30;;;;;;5051656;28;20025;-54
2023/09/01 11:17:56;;;;;;;3.40;1.20;;;21.20;64.60;;;;;;5051676;28;20044;-51
2023/09/01 11:20:29;;;;;;;3.22;0.90;;;21.40;64.50;;;;;;5021453;28;20038;-50
2023/09/01 11:23:03;;;;;;;4.10;1.00;;;21.50;64.10;;;;;;4998104;28;20041;-53
2023/09/01 11:25:32;;;;;;;3.63;0.90;;;21.50;63.70;;;;;;5011560;28;20026;-51
2023/09/01 11:27:59;;;;;;;2.80;0.90;;;21.40;61.40;;;;;;5037362;28;21914;-54
2023/09/01 11:30:27;;;;;;;2.10;0.73;;;21.40;63.00;;;;;;5023058;28;20029;-52
2023/09/01 11:32:53;;;;;;;3.30;0.93;;;21.40;64.30;;;;;;5049069;28;20032;-53
2023/09/01 11:35:29;;;;;;;3.20;0.98;;;21.40;63.10;;;;;;5040605;28;20051;-54
2023/09/01 11:37:57;;;;;;;3.05;1.08;;;21.50;63.80;;;;;;5034824;28;20094;-49
2023/09/01 11:40:28;;;;;;;3.67;1.05;;;21.30;61.90;;;;;;5035488;28;20386;-53
2023/09/01 11:42:55;;;;;;;4.10;0.95;;;21.50;63.30;;;;;;5018436;28;20044;-50
2023/09/01 11:45:24;;;;;;;2.53;0.80;;;21.40;64.10;;;;;;5045285;28;20052;-51
2023/09/01 11:47:56;;;;;;;1.33;0.60;;;21.60;64.40;;;;;;5036384;28;20104;-55
2023/09/01 11:50:22;;;;;;;4.00;1.05;;;21.60;60.50;;;;;;5052354;28;20630;-51
2023/09/01 11:53:03;;;;;;;2.50;1.33;;;21.60;62.20;;;;;;5027848;28;20036;-51
2023/09/01 11:55:34;;;;;;;1.40;0.70;;;21.50;60.60;;;;;;5042934;28;20041;-53
2023/09/01 11:58:06;;;;;;;3.20;0.90;;;21.40;59.30;;;;;;5040661;28;20517;-54
2023/09/01 12:00:38;;;;;;;3.08;1.05;;;21.60;61.60;;;;;;5035301;28;20098;-52
2023/09/01 12:03:05;;;;;;;1.70;0.90;;;21.50;63.50;;;;;;5053868;28;20618;-51
2023/09/01 12:05:51;;;;;;;3.42;0.90;;;21.60;61.70;;;;;;5023148;28;20040;-54
2023/09/01 12:08:25;;;;;;;2.83;0.90;;;21.40;61.90;;;;;;5034474;28;20025;-50
2023/09/01 12:11:07;;;;;;;2.95;0.93;;;21.40;62.30;;;;;;5023097;28;20026;-53
2023/09/01 12:13:33;;;;;;;2.80;0.98;;;21.20;60.80;;;;;;5032514;28;20430;-52
2023/09/01 12:16:03;;;;;;;2.20;0.90;;;20.90;59.10;;;;;;5045906;28;20036;-52
2023/09/01 12:18:38;;;;;;;4.28;0.80;;;20.90;59.60;;;;;;5050466;28;20072;-54
2023/09/01 12:21:09;;;;;;;2.03;0.80;;;20.80;61.50;;;;;;5045717;28;20029;-50
2023/09/01 12:23:54;;;;;;;3.38;1.05;;;20.70;61.50;;;;;;5032851;28;20040;-55
2023/09/01 12:26:21;;;;;;;2.42;0.73;;;20.50;64.20;;;;;;5047812;28;20036;-53
2023/09/01 12:28:50;;;;;;;1.83;0.73;;;20.40;67.60;;;;;;5018807;28;20060;-54
2023/09/01 12:31:15;;;;;;;3.50;1.00;;;20.40;68.80;;;;;;5040664;28;20548;-59
2023/09/01 12:33:42;;;;;;;4.35;1.35;;;20.40;69.60;;;;;;5029317;28;20060;-50
2023/09/01 12:36:09;;;;;;;2.30;0.90;;;20.40;70.70;;;;;;5041862;28;20025;-53
2023/09/01 12:38:43;;;;;;;5.65;0.98;;;20.30;68.60;;;;;;5044948;28;20393;-51
2023/09/01 12:41:10;;;;;;;2.95;1.00;;;20.10;69.10;;;;;;5044194;28;20037;-52
2023/09/01 12:43:38;;;;;;;4.25;1.20;;;20.10;69.10;;;;;;5046040;28;20116;-52
2023/09/01 12:46:05;;;;;;;2.75;1.00;;;20.00;70.40;;;;;;5046860;28;20394;-54
2023/09/01 12:48:32;;;;;;;2.83;1.02;;;19.90;69.90;;;;;;5030040;28;20035;-51
2023/09/01 12:50:59;;;;;;;4.63;1.00;;;19.90;70.90;;;;;;5048663;28;20435;-53
2023/09/01 12:53:27;;;;;;;5.53;1.42;;;20.20;72.50;;;;;;5053371;28;20028;-54
2023/09/01 12:55:59;;;;;;;3.13;1.05;;;20.50;73.30;;;;;;5030639;28;20393;-54
2023/09/01 12:58:28;;;;;;;4.15;1.23;;;20.60;70.90;;;;;;5006688;28;20090;-54
2023/09/01 13:00:55;;;;;;;2.42;1.05;;;20.50;68.40;;;;;;5050011;28;20024;-54
2023/09/01 13:03:24;;;;;;;3.20;1.15;;;20.40;69.40;;;;;;5039143;28;20045;-55